createdAt,value
2023-03-02T00:04:34.955Z,-3.55
2023-03-02T00:09:38.314Z,-3.69
2023-03-02T00:14:40.844Z,-3.69
2023-03-02T00:19:45.082Z,-3.67
2023-03-02T00:24:47.925Z,-3.57
2023-03-02T00:29:50.574Z,-3.62
2023-03-02T00:34:55.311Z,-3.59
2023-03-02T00:39:58.116Z,-3.64
2023-03-02T00:45:04.121Z,-3.60
2023-03-02T00:50:07.011Z,-3.67
2023-03-02T00:55:09.833Z,-3.73
2023-03-02T01:00:12.659Z,-3.65
2023-03-02T01:05:54.651Z,-3.71
2023-03-02T01:12:11.232Z,-3.64
2023-03-02T01:18:24.858Z,-3.69
2023-03-02T01:23:29.433Z,-3.70
2023-03-02T01:28:31.826Z,-3.57
2023-03-02T01:33:34.428Z,-3.60
2023-03-02T01:38:36.948Z,-3.50
2023-03-02T01:43:39.824Z,-3.62
2023-03-02T01:48:42.444Z,-3.58
2023-03-02T01:53:49.163Z,-3.71
2023-03-02T01:58:57.092Z,-3.72
2023-03-02T02:04:02.011Z,-3.61
2023-03-02T02:09:08.719Z,-3.63
2023-03-02T02:14:12.133Z,-3.64
2023-03-02T02:20:10.765Z,-3.60
2023-03-02T02:26:27.461Z,-3.52
2023-03-02T02:32:07.084Z,-3.67
2023-03-02T02:37:33.558Z,-3.82
2023-03-02T02:42:42.697Z,-3.78
2023-03-02T02:47:45.412Z,-3.60
2023-03-02T02:52:56.198Z,-3.66
2023-03-02T02:58:01.492Z,-3.59
2023-03-02T03:03:29.493Z,-3.59
2023-03-02T03:08:46.879Z,-3.60
2023-03-02T03:13:56.811Z,-3.70
2023-03-02T03:19:05.905Z,-3.82
2023-03-02T03:24:08.730Z,-4.01
2023-03-02T03:29:12.947Z,-4.17
2023-03-02T03:34:15.533Z,-4.07
2023-03-02T03:39:19.182Z,-3.99
2023-03-02T03:44:25.255Z,-4.02
2023-03-02T03:49:28.714Z,-3.90
2023-03-02T03:54:31.953Z,-4.14
2023-03-02T03:59:35.095Z,-4.29
2023-03-02T04:04:39.335Z,-4.22
2023-03-02T04:09:49.110Z,-3.98
2023-03-02T04:14:52.210Z,-3.73
2023-03-02T04:19:55.235Z,-3.65
2023-03-02T04:24:58.055Z,-3.38
2023-03-02T04:30:00.907Z,-3.10
2023-03-02T04:35:06.689Z,-2.99
2023-03-02T04:40:10.536Z,-2.87
2023-03-02T04:45:16.855Z,-2.63
2023-03-02T04:50:19.481Z,-2.44
2023-03-02T04:55:24.786Z,-2.33
2023-03-02T05:00:29.190Z,-2.37
2023-03-02T05:05:33.133Z,-2.34
2023-03-02T05:10:35.693Z,-2.06
2023-03-02T05:15:41.687Z,-1.85
2023-03-02T05:20:44.545Z,-1.69
2023-03-02T05:25:47.041Z,-1.56
2023-03-02T05:30:49.811Z,-1.33
2023-03-02T05:35:52.388Z,-1.19
2023-03-02T05:40:54.935Z,-0.96
2023-03-02T05:46:01.028Z,-0.70
2023-03-02T05:51:04.105Z,-0.78
2023-03-02T05:56:07.899Z,-0.53
2023-03-02T06:01:14.841Z,-0.42
2023-03-02T06:06:19.093Z,-0.14
2023-03-02T06:11:21.637Z,-0.12
2023-03-02T06:16:27.385Z,0.35
2023-03-02T06:21:30.029Z,0.46
2023-03-02T06:26:32.670Z,0.78
2023-03-02T06:31:35.823Z,0.75
2023-03-02T06:36:39.090Z,0.72
2023-03-02T06:41:46.301Z,1.05
2023-03-02T06:46:48.866Z,1.10
2023-03-02T06:51:51.457Z,0.87
2023-03-02T06:56:53.994Z,0.90
2023-03-02T07:01:56.481Z,1.37
2023-03-02T07:07:01.204Z,1.71
2023-03-02T07:12:04.039Z,1.59
2023-03-02T07:17:06.824Z,1.60
2023-03-02T07:22:09.576Z,1.67
2023-03-02T07:27:12.558Z,1.46
2023-03-02T07:32:15.370Z,1.39
2023-03-02T07:37:17.992Z,1.38
2023-03-02T07:42:21.867Z,1.14
2023-03-02T07:47:28.591Z,1.19
2023-03-02T07:52:34.788Z,1.37
2023-03-02T07:57:37.792Z,1.03
2023-03-02T08:02:42.032Z,1.45
2023-03-02T08:07:47.304Z,1.43
2023-03-02T08:42:52.543Z,1.07
2023-03-02T08:53:15.907Z,1.10
2023-03-02T08:58:20.075Z,1.30
2023-03-02T09:03:24.320Z,1.35
2023-03-02T09:08:27.157Z,1.84
2023-03-02T09:13:29.659Z,2.26
2023-03-02T09:18:32.683Z,2.13
2023-03-02T09:23:36.880Z,2.51
2023-03-02T09:28:40.108Z,2.56
2023-03-02T09:33:42.772Z,2.65
2023-03-02T09:38:45.353Z,2.24
2023-03-02T09:44:02.734Z,2.34
2023-03-02T09:49:17.108Z,2.04
2023-03-02T09:54:26.518Z,1.79
2023-03-02T09:59:40.514Z,2.10
2023-03-02T10:04:50.527Z,2.50
2023-03-02T10:09:53.577Z,2.71
2023-03-02T10:15:28.116Z,3.22
2023-03-02T10:20:51.773Z,2.42
2023-03-02T10:26:18.984Z,2.13
2023-03-02T10:31:34.128Z,2.02
2023-03-02T10:36:40.736Z,2.30
2023-03-02T10:41:59.353Z,2.88
2023-03-02T10:47:02.012Z,3.18
2023-03-02T10:52:19.914Z,3.24
2023-03-02T10:57:30.375Z,2.80
2023-03-02T11:02:37.624Z,2.42
2023-03-02T11:07:40.189Z,2.53
2023-03-02T11:12:49.623Z,2.54
2023-03-02T11:18:34.968Z,2.64
2023-03-02T11:23:56.472Z,2.78
2023-03-02T11:29:04.149Z,2.50
2023-03-02T11:34:23.844Z,2.03
2023-03-02T11:39:41.162Z,1.65
2023-03-02T11:45:15.328Z,1.68
2023-03-02T11:50:18.073Z,1.80
2023-03-02T11:55:26.964Z,1.78
2023-03-02T12:00:43.314Z,1.75
2023-03-02T12:06:15.501Z,1.93
2023-03-02T12:11:18.269Z,1.68
2023-03-02T12:16:38.292Z,1.38
2023-03-02T12:21:44.014Z,1.25
2023-03-02T12:26:46.517Z,1.14
2023-03-02T12:31:57.191Z,2.61
2023-03-02T12:37:06.401Z,3.75
2023-03-02T12:42:44.399Z,2.76
2023-03-02T12:47:52.142Z,2.52
2023-03-02T12:53:02.314Z,2.21
2023-03-02T12:58:15.584Z,1.98
2023-03-02T13:03:18.991Z,2.09
2023-03-02T13:08:28.965Z,2.29
2023-03-02T13:13:45.518Z,3.65
2023-03-02T13:18:50.192Z,4.18
2023-03-02T13:23:53.054Z,3.25
2023-03-02T13:29:27.398Z,3.34
2023-03-02T13:34:34.267Z,2.85
2023-03-02T13:39:37.539Z,2.53
2023-03-02T13:44:40.162Z,2.47
2023-03-02T13:49:42.691Z,2.40
2023-03-02T13:54:47.546Z,2.30
2023-03-02T13:59:50.239Z,2.22
2023-03-02T14:04:53.730Z,2.03
2023-03-02T14:09:57.596Z,2.06
2023-03-02T14:15:04.310Z,1.75
2023-03-02T14:20:15.244Z,1.84
2023-03-02T14:25:18.083Z,1.84
2023-03-02T14:30:21.312Z,1.63
2023-03-02T14:35:25.800Z,1.48
2023-03-02T14:40:28.774Z,1.43
2023-03-02T14:45:34.032Z,1.32
2023-03-02T14:50:41.392Z,1.34
2023-03-02T14:55:44.476Z,1.38
2023-03-02T15:00:47.751Z,1.36
2023-03-02T15:06:00.930Z,1.42
2023-03-02T15:11:04.426Z,1.37
2023-03-02T15:16:09.902Z,1.50
2023-03-02T15:21:18.943Z,1.43
2023-03-02T15:26:21.582Z,1.33
2023-03-02T15:31:24.751Z,1.35
2023-03-02T15:36:27.164Z,1.42
2023-03-02T15:41:29.822Z,1.43
2023-03-02T15:46:32.410Z,1.44
2023-03-02T15:51:34.892Z,1.50
2023-03-02T15:56:44.045Z,1.41
2023-03-02T16:01:46.958Z,1.45
2023-03-02T16:06:49.595Z,1.55
2023-03-02T16:11:52.633Z,1.60
2023-03-02T16:16:55.407Z,1.75
2023-03-02T16:21:58.130Z,1.84
2023-03-02T16:27:00.687Z,1.97
2023-03-02T16:32:03.577Z,2.08
2023-03-02T16:37:06.295Z,2.06
2023-03-02T16:42:08.858Z,2.08
2023-03-02T16:47:11.264Z,2.22
2023-03-02T16:52:13.771Z,2.23
2023-03-02T16:57:16.468Z,2.22
2023-03-02T17:02:19.025Z,2.31
2023-03-02T17:07:21.639Z,2.32
2023-03-02T17:12:29.849Z,2.20
2023-03-02T17:17:32.456Z,2.25
2023-03-02T17:22:34.983Z,2.21
2023-03-02T17:27:37.943Z,2.24
2023-03-02T17:32:41.761Z,2.16
2023-03-02T17:37:44.315Z,2.09
2023-03-02T17:42:46.815Z,2.04
2023-03-02T17:47:50.568Z,1.99
2023-03-02T17:52:54.477Z,1.99
2023-03-02T17:57:57.007Z,1.97
2023-03-02T18:02:59.647Z,1.92
2023-03-02T18:08:02.365Z,2.03
2023-03-02T18:13:04.989Z,2.15
2023-03-02T18:18:07.709Z,2.26
2023-03-02T18:23:10.573Z,2.34
2023-03-02T18:28:13.190Z,2.30
2023-03-02T18:33:15.816Z,2.27
2023-03-02T18:38:18.357Z,2.28
2023-03-02T18:43:20.889Z,2.29
2023-03-02T18:48:25.513Z,1.96
2023-03-02T18:53:27.897Z,1.71
2023-03-02T18:58:34.353Z,1.58
2023-03-02T19:03:38.952Z,1.30
2023-03-02T19:08:41.643Z,1.17
2023-03-02T19:13:44.247Z,0.89
2023-03-02T19:18:46.950Z,1.06
2023-03-02T19:23:49.722Z,0.97
2023-03-02T19:28:52.310Z,0.89
2023-03-02T19:33:55.015Z,0.97
2023-03-02T19:38:59.852Z,1.10
2023-03-02T19:44:02.389Z,1.15
2023-03-02T19:49:23.456Z,1.32
2023-03-02T19:54:26.062Z,1.21
2023-03-02T19:59:30.965Z,1.30
2023-03-02T20:04:33.996Z,1.39
2023-03-02T20:09:36.865Z,1.54
2023-03-02T20:14:40.976Z,1.52
2023-03-02T20:19:47.140Z,1.41
2023-03-02T20:24:49.590Z,1.38
2023-03-02T20:29:52.138Z,1.31
2023-03-02T20:34:57.725Z,1.34
2023-03-02T20:40:00.806Z,1.27
2023-03-02T20:45:04.542Z,1.35
2023-03-02T20:50:11.495Z,1.46
2023-03-02T20:55:14.266Z,1.53
2023-03-02T21:00:22.340Z,1.55
2023-03-02T21:05:26.282Z,1.66
2023-03-02T21:10:33.741Z,1.71
2023-03-02T21:15:36.991Z,1.74
2023-03-02T21:20:40.081Z,1.73
2023-03-02T21:25:45.021Z,1.88
2023-03-02T21:30:50.652Z,1.87
2023-03-02T21:35:53.276Z,1.78
2023-03-02T21:40:55.774Z,1.81
2023-03-02T21:46:00.638Z,1.80
2023-03-02T21:51:03.244Z,1.79
2023-03-02T21:56:06.363Z,1.51
2023-03-02T22:01:08.780Z,1.66
2023-03-02T22:06:25.997Z,1.69
2023-03-02T22:11:35.088Z,1.67
2023-03-02T22:16:40.207Z,1.68
2023-03-02T22:21:49.650Z,1.65
2023-03-02T22:26:59.841Z,1.79
2023-03-02T22:32:24.173Z,1.86
2023-03-02T22:37:34.070Z,1.77
2023-03-02T22:42:36.605Z,1.65
2023-03-02T22:47:40.188Z,1.59
2023-03-02T22:52:44.894Z,1.78
2023-03-02T22:57:47.415Z,1.77
2023-03-02T23:02:52.696Z,1.77
2023-03-02T23:08:15.627Z,1.93
2023-03-02T23:13:21.060Z,1.92
2023-03-02T23:18:25.214Z,1.76
2023-03-02T23:23:27.970Z,1.89
2023-03-02T23:28:30.443Z,1.84
2023-03-02T23:33:33.841Z,1.77
2023-03-02T23:38:36.823Z,1.74
2023-03-02T23:43:39.372Z,1.73
2023-03-02T23:48:43.139Z,1.78
2023-03-02T23:53:45.760Z,1.84
2023-03-02T23:58:48.409Z,1.94
